sensor_id;sensor_type;location;lat;lon;timestamp;temperature;humidity
23477;DHT22;11911;50.768;13.150;2022-07-10T04:00:29;10.30;96.30
23477;DHT22;11911;50.768;13.150;2022-07-10T04:03:00;10.30;96.30
23477;DHT22;11911;50.768;13.150;2022-07-10T04:05:26;10.30;96.30
23477;DHT22;11911;50.768;13.150;2022-07-10T04:07:52;10.30;96.30
23477;DHT22;11911;50.768;13.150;2022-07-10T04:10:18;10.30;96.30
23477;DHT22;11911;50.768;13.150;2022-07-10T04:12:44;10.40;96.30
23477;DHT22;11911;50.768;13.150;2022-07-10T04:15:10;10.40;96.30
23477;DHT22;11911;50.768;13.150;2022-07-10T04:17:36;10.40;96.30
23477;DHT22;11911;50.768;13.150;2022-07-10T04:20:01;10.40;96.30
23477;DHT22;11911;50.768;13.150;2022-07-10T04:22:27;10.40;96.30
23477;DHT22;11911;50.768;13.150;2022-07-10T04:24:56;10.40;96.30
23477;DHT22;11911;50.768;13.150;2022-07-10T04:27:22;10.40;96.30
23477;DHT22;11911;50.768;13.150;2022-07-10T04:29:48;10.40;96.30
23477;DHT22;11911;50.768;13.150;2022-07-10T04:32:14;10.50;96.30
23477;DHT22;11911;50.768;13.150;2022-07-10T04:34:40;10.50;96.30
23477;DHT22;11911;50.768;13.150;2022-07-10T04:37:06;10.50;96.30
23477;DHT22;11911;50.768;13.150;2022-07-10T04:39:35;10.60;96.30
23477;DHT22;11911;50.768;13.150;2022-07-10T04:42:03;10.60;96.30
23477;DHT22;11911;50.768;13.150;2022-07-10T04:44:29;10.50;96.30
23477;DHT22;11911;50.768;13.150;2022-07-10T04:46:54;10.50;96.30
23477;DHT22;11911;50.768;13.150;2022-07-10T04:49:20;10.50;96.30
23477;DHT22;11911;50.768;13.150;2022-07-10T04:51:45;10.50;96.30
23477;DHT22;11911;50.768;13.150;2022-07-10T04:54:11;10.50;96.30
23477;DHT22;11911;50.768;13.150;2022-07-10T04:56:36;10.50;96.30
23477;DHT22;11911;50.768;13.150;2022-07-10T04:59:02;10.50;96.30
23477;DHT22;11911;50.768;13.150;2022-07-10T05:01:27;10.60;96.30
23477;DHT22;11911;50.768;13.150;2022-07-10T05:03:53;10.60;96.30
23477;DHT22;11911;50.768;13.150;2022-07-10T05:06:18;10.60;96.30
23477;DHT22;11911;50.768;13.150;2022-07-10T05:08:44;10.50;96.30
23477;DHT22;11911;50.768;13.150;2022-07-10T05:11:09;10.60;96.30
23477;DHT22;11911;50.768;13.150;2022-07-10T05:13:36;10.60;96.30
23477;DHT22;11911;50.768;13.150;2022-07-10T05:16:02;10.60;96.30
23477;DHT22;11911;50.768;13.150;2022-07-10T05:18:28;10.70;96.30
23477;DHT22;11911;50.768;13.150;2022-07-10T05:20:54;10.70;96.30
23477;DHT22;11911;50.768;13.150;2022-07-10T05:23:20;10.70;96.30
23477;DHT22;11911;50.768;13.150;2022-07-10T05:25:46;10.70;96.30
23477;DHT22;11911;50.768;13.150;2022-07-10T05:28:11;10.80;96.30
23477;DHT22;11911;50.768;13.150;2022-07-10T05:30:39;10.80;96.30
23477;DHT22;11911;50.768;13.150;2022-07-10T05:33:05;10.90;96.30
23477;DHT22;11911;50.768;13.150;2022-07-10T05:35:30;10.90;96.30
23477;DHT22;11911;50.768;13.150;2022-07-10T05:37:56;10.90;96.30
23477;DHT22;11911;50.768;13.150;2022-07-10T05:40:21;10.90;96.30
23477;DHT22;11911;50.768;13.150;2022-07-10T05:42:47;11.10;96.30
23477;DHT22;11911;50.768;13.150;2022-07-10T05:45:12;11.20;96.30
23477;DHT22;11911;50.768;13.150;2022-07-10T05:47:38;11.40;96.30
23477;DHT22;11911;50.768;13.150;2022-07-10T05:50:04;11.40;96.30
23477;DHT22;11911;50.768;13.150;2022-07-10T05:52:30;11.60;96.30
23477;DHT22;11911;50.768;13.150;2022-07-10T05:54:58;11.80;96.30
23477;DHT22;11911;50.768;13.150;2022-07-10T05:57:24;12.00;96.30
23477;DHT22;11911;50.768;13.150;2022-07-10T05:59:50;12.40;96.30
23477;DHT22;11911;50.768;13.150;2022-07-10T06:02:15;12.50;96.30
23477;DHT22;11911;50.768;13.150;2022-07-10T06:04:41;12.70;96.30
23477;DHT22;11911;50.768;13.150;2022-07-10T06:07:07;12.90;96.30
23477;DHT22;11911;50.768;13.150;2022-07-10T06:09:32;12.90;96.30
23477;DHT22;11911;50.768;13.150;2022-07-10T06:11:58;13.50;96.30
23477;DHT22;11911;50.768;13.150;2022-07-10T06:14:23;15.00;96.30
23477;DHT22;11911;50.768;13.150;2022-07-10T06:16:49;15.80;96.30
23477;DHT22;11911;50.768;13.150;2022-07-10T06:19:14;16.10;96.30
23477;DHT22;11911;50.768;13.150;2022-07-10T06:21:42;16.40;96.30
23477;DHT22;11911;50.768;13.150;2022-07-10T06:24:08;15.60;96.30
23477;DHT22;11911;50.768;13.150;2022-07-10T06:26:33;14.50;96.30
23477;DHT22;11911;50.768;13.150;2022-07-10T06:28:59;13.80;96.30
23477;DHT22;11911;50.768;13.150;2022-07-10T06:31:24;12.90;96.30
23477;DHT22;11911;50.768;13.150;2022-07-10T06:33:50;12.30;96.30
23477;DHT22;11911;50.768;13.150;2022-07-10T06:36:15;12.10;96.30
23477;DHT22;11911;50.768;13.150;2022-07-10T06:38:41;12.30;96.30
23477;DHT22;11911;50.768;13.150;2022-07-10T06:41:06;12.50;96.30
23477;DHT22;11911;50.768;13.150;2022-07-10T06:43:32;12.50;96.30
23477;DHT22;11911;50.768;13.150;2022-07-10T06:45:58;12.50;96.30
23477;DHT22;11911;50.768;13.150;2022-07-10T06:48:24;12.50;96.30
23477;DHT22;11911;50.768;13.150;2022-07-10T06:50:51;12.40;96.30
23477;DHT22;11911;50.768;13.150;2022-07-10T06:53:17;12.10;96.30
23477;DHT22;11911;50.768;13.150;2022-07-10T06:55:43;11.90;96.30
23477;DHT22;11911;50.768;13.150;2022-07-10T06:58:08;11.80;96.30
23477;DHT22;11911;50.768;13.150;2022-07-10T07:00:34;11.90;96.30
23477;DHT22;11911;50.768;13.150;2022-07-10T07:02:59;12.10;96.30
23477;DHT22;11911;50.768;13.150;2022-07-10T07:05:25;12.40;96.30
23477;DHT22;11911;50.768;13.150;2022-07-10T07:07:50;12.90;96.30
23477;DHT22;11911;50.768;13.150;2022-07-10T07:10:16;12.90;96.30
23477;DHT22;11911;50.768;13.150;2022-07-10T07:12:41;12.90;96.30
23477;DHT22;11911;50.768;13.150;2022-07-10T07:15:07;12.90;96.30
23477;DHT22;11911;50.768;13.150;2022-07-10T07:17:38;12.60;96.30
23477;DHT22;11911;50.768;13.150;2022-07-10T07:20:22;12.10;96.30
23477;DHT22;11911;50.768;13.150;2022-07-10T07:23:06;12.10;96.30
23477;DHT22;11911;50.768;13.150;2022-07-10T07:25:35;12.00;96.30
23477;DHT22;11911;50.768;13.150;2022-07-10T07:28:00;11.90;96.30
23477;DHT22;11911;50.768;13.150;2022-07-10T07:30:26;11.90;96.30
23477;DHT22;11911;50.768;13.150;2022-07-10T07:32:51;12.00;96.30
23477;DHT22;11911;50.768;13.150;2022-07-10T07:35:17;12.00;96.30
23477;DHT22;11911;50.768;13.150;2022-07-10T07:37:45;12.00;96.30
23477;DHT22;11911;50.768;13.150;2022-07-10T07:40:13;12.00;96.30
23477;DHT22;11911;50.768;13.150;2022-07-10T07:42:38;12.10;96.30
23477;DHT22;11911;50.768;13.150;2022-07-10T07:45:05;12.00;96.30
23477;DHT22;11911;50.768;13.150;2022-07-10T07:47:31;12.00;96.30
23477;DHT22;11911;50.768;13.150;2022-07-10T07:50:07;12.10;96.30
23477;DHT22;11911;50.768;13.150;2022-07-10T07:52:33;12.20;96.30
23477;DHT22;11911;50.768;13.150;2022-07-10T07:55:00;12.10;96.30
23477;DHT22;11911;50.768;13.150;2022-07-10T07:57:26;11.90;96.30
23477;DHT22;11911;50.768;13.150;2022-07-10T07:59:51;11.70;96.30
23477;DHT22;11911;50.768;13.150;2022-07-10T08:02:17;11.40;96.30
23477;DHT22;11911;50.768;13.150;2022-07-10T08:04:42;11.00;96.30
23477;DHT22;11911;50.768;13.150;2022-07-10T08:07:08;10.90;96.30
23477;DHT22;11911;50.768;13.150;2022-07-10T08:09:33;10.70;96.30
23477;DHT22;11911;50.768;13.150;2022-07-10T08:12:00;10.60;96.30
23477;DHT22;11911;50.768;13.150;2022-07-10T08:14:25;10.50;96.30
23477;DHT22;11911;50.768;13.150;2022-07-10T08:16:51;10.50;96.30
23477;DHT22;11911;50.768;13.150;2022-07-10T08:19:16;10.60;96.30
23477;DHT22;11911;50.768;13.150;2022-07-10T08:21:42;10.70;96.30
23477;DHT22;11911;50.768;13.150;2022-07-10T08:24:08;10.60;96.30
23477;DHT22;11911;50.768;13.150;2022-07-10T08:26:34;10.60;96.30
23477;DHT22;11911;50.768;13.150;2022-07-10T08:28:59;10.60;96.30
23477;DHT22;11911;50.768;13.150;2022-07-10T08:31:25;10.50;96.30
23477;DHT22;11911;50.768;13.150;2022-07-10T08:33:50;10.40;96.30
23477;DHT22;11911;50.768;13.150;2022-07-10T08:36:17;10.40;96.30
23477;DHT22;11911;50.768;13.150;2022-07-10T08:38:43;10.50;96.30
23477;DHT22;11911;50.768;13.150;2022-07-10T08:41:11;10.70;96.30
23477;DHT22;11911;50.768;13.150;2022-07-10T08:43:37;10.90;96.30
23477;DHT22;11911;50.768;13.150;2022-07-10T08:46:05;11.30;96.30
23477;DHT22;11911;50.768;13.150;2022-07-10T08:48:32;11.80;96.30
23477;DHT22;11911;50.768;13.150;2022-07-10T08:51:05;12.30;96.30
23477;DHT22;11911;50.768;13.150;2022-07-10T08:53:32;12.60;96.30
23477;DHT22;11911;50.768;13.150;2022-07-10T08:55:58;13.00;96.30
23477;DHT22;11911;50.768;13.150;2022-07-10T08:58:24;13.20;96.30
23477;DHT22;11911;50.768;13.150;2022-07-10T09:00:51;13.30;96.30
23477;DHT22;11911;50.768;13.150;2022-07-10T09:03:17;13.10;96.30
23477;DHT22;11911;50.768;13.150;2022-07-10T09:05:42;13.20;96.30
23477;DHT22;11911;50.768;13.150;2022-07-10T09:08:24;13.30;96.30
23477;DHT22;11911;50.768;13.150;2022-07-10T09:10:52;13.40;96.30
23477;DHT22;11911;50.768;13.150;2022-07-10T09:13:17;13.50;96.30
23477;DHT22;11911;50.768;13.150;2022-07-10T09:15:48;13.60;96.30
23477;DHT22;11911;50.768;13.150;2022-07-10T09:18:18;13.80;96.30
23477;DHT22;11911;50.768;13.150;2022-07-10T09:20:44;13.50;96.30
23477;DHT22;11911;50.768;13.150;2022-07-10T09:23:22;13.60;96.30
23477;DHT22;11911;50.768;13.150;2022-07-10T09:25:51;14.00;96.30
23477;DHT22;11911;50.768;13.150;2022-07-10T09:28:21;14.40;96.30
23477;DHT22;11911;50.768;13.150;2022-07-10T09:30:48;15.40;96.30
23477;DHT22;11911;50.768;13.150;2022-07-10T09:33:27;15.90;96.30
23477;DHT22;11911;50.768;13.150;2022-07-10T09:35:56;16.40;96.30
23477;DHT22;11911;50.768;13.150;2022-07-10T09:41:14;17.20;96.30
23477;DHT22;11911;50.768;13.150;2022-07-10T09:44:06;16.70;96.30
23477;DHT22;11911;50.768;13.150;2022-07-10T09:46:38;16.50;96.30
23477;DHT22;11911;50.768;13.150;2022-07-10T09:49:09;16.30;96.30
23477;DHT22;11911;50.768;13.150;2022-07-10T09:51:40;16.90;96.30
23477;DHT22;11911;50.768;13.150;2022-07-10T09:54:07;16.70;96.30
23477;DHT22;11911;50.768;13.150;2022-07-10T09:59:14;15.60;96.30
23477;DHT22;11911;50.768;13.150;2022-07-10T10:01:45;15.70;96.30
23477;DHT22;11911;50.768;13.150;2022-07-10T10:04:12;16.00;96.30
23477;DHT22;11911;50.768;13.150;2022-07-10T10:06:39;15.80;96.30
23477;DHT22;11911;50.768;13.150;2022-07-10T10:09:34;15.90;96.30
23477;DHT22;11911;50.768;13.150;2022-07-10T10:12:14;16.30;96.30
23477;DHT22;11911;50.768;13.150;2022-07-10T10:14:41;16.90;96.30
23477;DHT22;11911;50.768;13.150;2022-07-10T10:17:07;16.30;96.30
23477;DHT22;11911;50.768;13.150;2022-07-10T10:19:33;15.40;96.30
23477;DHT22;11911;50.768;13.150;2022-07-10T10:22:18;14.50;96.30
23477;DHT22;11911;50.768;13.150;2022-07-10T10:24:44;13.90;96.30
23477;DHT22;11911;50.768;13.150;2022-07-10T10:27:11;13.90;96.30
23477;DHT22;11911;50.768;13.150;2022-07-10T10:29:38;14.10;96.30
23477;DHT22;11911;50.768;13.150;2022-07-10T10:32:04;14.40;96.30
23477;DHT22;11911;50.768;13.150;2022-07-10T10:34:48;14.60;96.30
23477;DHT22;11911;50.768;13.150;2022-07-10T10:39:56;14.60;96.30
23477;DHT22;11911;50.768;13.150;2022-07-10T10:42:41;14.80;96.30
23477;DHT22;11911;50.768;13.150;2022-07-10T10:45:33;15.10;96.30
23477;DHT22;11911;50.768;13.150;2022-07-10T10:48:07;15.30;96.30
23477;DHT22;11911;50.768;13.150;2022-07-10T10:50:42;15.40;96.30
23477;DHT22;11911;50.768;13.150;2022-07-10T10:58:38;15.40;96.30
23477;DHT22;11911;50.768;13.150;2022-07-10T11:01:04;15.40;96.30
23477;DHT22;11911;50.768;13.150;2022-07-10T11:03:30;15.20;96.30
23477;DHT22;11911;50.768;13.150;2022-07-10T11:05:56;15.20;96.30
23477;DHT22;11911;50.768;13.150;2022-07-10T11:08:42;15.20;96.30
23477;DHT22;11911;50.768;13.150;2022-07-10T11:13:57;15.00;96.30
23477;DHT22;11911;50.768;13.150;2022-07-10T11:16:23;14.90;96.30
23477;DHT22;11911;50.768;13.150;2022-07-10T11:18:53;15.30;96.30
23477;DHT22;11911;50.768;13.150;2022-07-10T11:21:23;15.60;96.30
23477;DHT22;11911;50.768;13.150;2022-07-10T11:23:56;16.00;96.30
23477;DHT22;11911;50.768;13.150;2022-07-10T11:26:35;16.10;96.30
23477;DHT22;11911;50.768;13.150;2022-07-10T11:29:05;15.70;96.30
23477;DHT22;11911;50.768;13.150;2022-07-10T11:31:31;15.80;96.30
23477;DHT22;11911;50.768;13.150;2022-07-10T11:34:03;16.50;96.30
23477;DHT22;11911;50.768;13.150;2022-07-10T11:36:29;16.50;96.30
23477;DHT22;11911;50.768;13.150;2022-07-10T11:41:26;16.30;96.30
23477;DHT22;11911;50.768;13.150;2022-07-10T11:43:57;16.20;96.30
23477;DHT22;11911;50.768;13.150;2022-07-10T11:46:28;16.20;96.30
23477;DHT22;11911;50.768;13.150;2022-07-10T11:48:55;15.90;96.30
23477;DHT22;11911;50.768;13.150;2022-07-10T11:51:38;15.80;96.30
23477;DHT22;11911;50.768;13.150;2022-07-10T11:56:37;16.30;96.30
23477;DHT22;11911;50.768;13.150;2022-07-10T11:59:05;16.50;96.30
23477;DHT22;11911;50.768;13.150;2022-07-10T12:01:33;17.00;96.30
23477;DHT22;11911;50.768;13.150;2022-07-10T12:06:29;15.70;96.30
23477;DHT22;11911;50.768;13.150;2022-07-10T12:08:55;15.50;96.30
23477;DHT22;11911;50.768;13.150;2022-07-10T12:11:22;15.80;96.30
23477;DHT22;11911;50.768;13.150;2022-07-10T12:13:49;16.10;96.30
23477;DHT22;11911;50.768;13.150;2022-07-10T12:16:16;16.40;96.30
23477;DHT22;11911;50.768;13.150;2022-07-10T12:18:42;17.40;96.30
23477;DHT22;11911;50.768;13.150;2022-07-10T12:21:09;17.70;96.30
23477;DHT22;11911;50.768;13.150;2022-07-10T12:23:35;17.80;96.30
23477;DHT22;11911;50.768;13.150;2022-07-10T12:26:08;17.80;96.30
23477;DHT22;11911;50.768;13.150;2022-07-10T12:28:55;17.80;96.30
23477;DHT22;11911;50.768;13.150;2022-07-10T12:31:31;17.10;96.30
23477;DHT22;11911;50.768;13.150;2022-07-10T12:34:02;16.80;96.30
23477;DHT22;11911;50.768;13.150;2022-07-10T12:36:52;17.00;96.30
23477;DHT22;11911;50.768;13.150;2022-07-10T12:39:20;16.80;96.30
23477;DHT22;11911;50.768;13.150;2022-07-10T12:42:06;17.00;96.30
23477;DHT22;11911;50.768;13.150;2022-07-10T12:44:50;17.30;96.30
23477;DHT22;11911;50.768;13.150;2022-07-10T12:47:20;17.40;96.30
23477;DHT22;11911;50.768;13.150;2022-07-10T12:52:48;16.40;96.30
23477;DHT22;11911;50.768;13.150;2022-07-10T12:55:21;16.60;96.30
23477;DHT22;11911;50.768;13.150;2022-07-10T12:57:58;17.10;96.30
23477;DHT22;11911;50.768;13.150;2022-07-10T13:00:32;17.70;96.30
23477;DHT22;11911;50.768;13.150;2022-07-10T13:03:16;17.90;96.30
23477;DHT22;11911;50.768;13.150;2022-07-10T13:05:43;18.00;96.30
23477;DHT22;11911;50.768;13.150;2022-07-10T13:08:17;17.60;96.30
23477;DHT22;11911;50.768;13.150;2022-07-10T13:10:49;17.00;96.30
23477;DHT22;11911;50.768;13.150;2022-07-10T13:13:15;16.40;96.30
23477;DHT22;11911;50.768;13.150;2022-07-10T13:15:42;15.90;96.30
23477;DHT22;11911;50.768;13.150;2022-07-10T13:18:23;16.00;96.30
23477;DHT22;11911;50.768;13.150;2022-07-10T13:20:51;15.80;96.30
23477;DHT22;11911;50.768;13.150;2022-07-10T13:23:17;15.90;96.30
23477;DHT22;11911;50.768;13.150;2022-07-10T13:25:47;16.00;96.30
23477;DHT22;11911;50.768;13.150;2022-07-10T13:28:14;16.20;96.30
23477;DHT22;11911;50.768;13.150;2022-07-10T13:30:42;16.40;96.30
23477;DHT22;11911;50.768;13.150;2022-07-10T13:33:07;16.80;96.30
23477;DHT22;11911;50.768;13.150;2022-07-10T13:35:33;17.30;96.30
23477;DHT22;11911;50.768;13.150;2022-07-10T13:38:00;18.00;96.30
23477;DHT22;11911;50.768;13.150;2022-07-10T13:40:30;18.80;96.30
23477;DHT22;11911;50.768;13.150;2022-07-10T13:42:57;18.20;96.30
23477;DHT22;11911;50.768;13.150;2022-07-10T13:45:23;17.80;96.30
23477;DHT22;11911;50.768;13.150;2022-07-10T13:47:50;17.50;96.30
23477;DHT22;11911;50.768;13.150;2022-07-10T13:50:18;17.30;96.30
23477;DHT22;11911;50.768;13.150;2022-07-10T13:52:44;17.20;96.30
23477;DHT22;11911;50.768;13.150;2022-07-10T13:55:09;17.40;96.30
23477;DHT22;11911;50.768;13.150;2022-07-10T13:57:35;17.50;96.30
23477;DHT22;11911;50.768;13.150;2022-07-10T14:00:01;17.90;96.30
23477;DHT22;11911;50.768;13.150;2022-07-10T14:02:26;17.90;96.30
23477;DHT22;11911;50.768;13.150;2022-07-10T14:04:52;18.00;96.30
23477;DHT22;11911;50.768;13.150;2022-07-10T14:07:17;17.60;96.30
23477;DHT22;11911;50.768;13.150;2022-07-10T14:09:43;17.00;96.30
23477;DHT22;11911;50.768;13.150;2022-07-10T14:12:08;17.00;96.30
23477;DHT22;11911;50.768;13.150;2022-07-10T14:14:34;17.20;96.30
23477;DHT22;11911;50.768;13.150;2022-07-10T14:16:59;17.50;96.30
23477;DHT22;11911;50.768;13.150;2022-07-10T14:19:25;17.50;96.30
23477;DHT22;11911;50.768;13.150;2022-07-10T14:21:50;18.20;96.30
23477;DHT22;11911;50.768;13.150;2022-07-10T14:24:16;18.10;96.30
23477;DHT22;11911;50.768;13.150;2022-07-10T14:26:41;18.30;96.30
23477;DHT22;11911;50.768;13.150;2022-07-10T14:29:06;18.30;96.30
23477;DHT22;11911;50.768;13.150;2022-07-10T14:31:32;18.10;96.30
23477;DHT22;11911;50.768;13.150;2022-07-10T14:33:58;18.10;96.30
23477;DHT22;11911;50.768;13.150;2022-07-10T14:36:24;18.00;96.30
23477;DHT22;11911;50.768;13.150;2022-07-10T14:38:53;17.90;96.30
23477;DHT22;11911;50.768;13.150;2022-07-10T14:41:18;17.90;96.30
23477;DHT22;11911;50.768;13.150;2022-07-10T14:43:44;17.90;96.30
23477;DHT22;11911;50.768;13.150;2022-07-10T14:46:09;18.20;96.30
23477;DHT22;11911;50.768;13.150;2022-07-10T14:48:35;18.70;95.90
23477;DHT22;11911;50.768;13.150;2022-07-10T14:51:01;18.20;96.30
23477;DHT22;11911;50.768;13.150;2022-07-10T14:53:27;17.40;96.30
23477;DHT22;11911;50.768;13.150;2022-07-10T14:55:52;17.30;96.30
23477;DHT22;11911;50.768;13.150;2022-07-10T14:58:18;17.00;96.30
23477;DHT22;11911;50.768;13.150;2022-07-10T15:00:43;16.70;96.30
23477;DHT22;11911;50.768;13.150;2022-07-10T15:03:09;16.80;96.30
23477;DHT22;11911;50.768;13.150;2022-07-10T15:05:34;16.90;96.30
23477;DHT22;11911;50.768;13.150;2022-07-10T15:08:00;17.20;96.30
23477;DHT22;11911;50.768;13.150;2022-07-10T15:10:27;17.30;96.30
23477;DHT22;11911;50.768;13.150;2022-07-10T15:12:53;17.50;96.30
23477;DHT22;11911;50.768;13.150;2022-07-10T15:15:19;17.50;96.30
23477;DHT22;11911;50.768;13.150;2022-07-10T15:17:44;17.60;96.30
23477;DHT22;11911;50.768;13.150;2022-07-10T15:20:11;17.70;96.30
23477;DHT22;11911;50.768;13.150;2022-07-10T15:22:36;17.70;96.30
23477;DHT22;11911;50.768;13.150;2022-07-10T15:25:02;17.60;96.30
23477;DHT22;11911;50.768;13.150;2022-07-10T15:27:28;17.50;96.30
23477;DHT22;11911;50.768;13.150;2022-07-10T15:29:53;17.10;96.30
23477;DHT22;11911;50.768;13.150;2022-07-10T15:32:20;16.70;96.30
23477;DHT22;11911;50.768;13.150;2022-07-10T15:34:45;16.60;96.30
23477;DHT22;11911;50.768;13.150;2022-07-10T15:37:11;16.70;96.30
23477;DHT22;11911;50.768;13.150;2022-07-10T15:39:37;16.90;96.30
23477;DHT22;11911;50.768;13.150;2022-07-10T15:42:10;16.90;96.30
23477;DHT22;11911;50.768;13.150;2022-07-10T15:44:35;17.00;96.30
23477;DHT22;11911;50.768;13.150;2022-07-10T15:47:01;17.30;96.30
23477;DHT22;11911;50.768;13.150;2022-07-10T15:49:27;17.70;96.30
23477;DHT22;11911;50.768;13.150;2022-07-10T15:51:52;17.80;96.30
23477;DHT22;11911;50.768;13.150;2022-07-10T15:54:17;17.60;96.30
23477;DHT22;11911;50.768;13.150;2022-07-10T15:56:46;17.20;96.30
23477;DHT22;11911;50.768;13.150;2022-07-10T15:59:11;17.10;96.30
23477;DHT22;11911;50.768;13.150;2022-07-10T16:01:37;17.40;96.30
23477;DHT22;11911;50.768;13.150;2022-07-10T16:04:02;17.20;96.30
23477;DHT22;11911;50.768;13.150;2022-07-10T16:06:28;17.60;96.30
23477;DHT22;11911;50.768;13.150;2022-07-10T16:08:54;17.70;96.30
23477;DHT22;11911;50.768;13.150;2022-07-10T16:11:20;17.90;95.10
23477;DHT22;11911;50.768;13.150;2022-07-10T16:13:50;18.20;96.10
23477;DHT22;11911;50.768;13.150;2022-07-10T16:16:15;18.30;96.30
23477;DHT22;11911;50.768;13.150;2022-07-10T16:18:41;17.90;95.90
23477;DHT22;11911;50.768;13.150;2022-07-10T16:21:06;17.40;96.30
23477;DHT22;11911;50.768;13.150;2022-07-10T16:23:33;17.20;96.30
23477;DHT22;11911;50.768;13.150;2022-07-10T16:25:58;17.20;96.30
23477;DHT22;11911;50.768;13.150;2022-07-10T16:28:28;17.10;96.30
23477;DHT22;11911;50.768;13.150;2022-07-10T16:30:53;17.00;96.30
23477;DHT22;11911;50.768;13.150;2022-07-10T16:33:19;17.20;96.30
23477;DHT22;11911;50.768;13.150;2022-07-10T16:35:44;17.30;96.30
23477;DHT22;11911;50.768;13.150;2022-07-10T16:38:11;17.50;96.30
23477;DHT22;11911;50.768;13.150;2022-07-10T16:40:38;17.50;96.30
23477;DHT22;11911;50.768;13.150;2022-07-10T16:43:05;17.40;96.30
23477;DHT22;11911;50.768;13.150;2022-07-10T16:45:30;17.40;96.30
23477;DHT22;11911;50.768;13.150;2022-07-10T16:47:56;17.30;95.40
23477;DHT22;11911;50.768;13.150;2022-07-10T16:50:22;17.10;96.30
23477;DHT22;11911;50.768;13.150;2022-07-10T16:52:48;16.80;96.30
23477;DHT22;11911;50.768;13.150;2022-07-10T16:55:14;16.80;96.30
23477;DHT22;11911;50.768;13.150;2022-07-10T16:57:40;16.80;96.30
23477;DHT22;11911;50.768;13.150;2022-07-10T17:00:07;16.90;96.30
23477;DHT22;11911;50.768;13.150;2022-07-10T17:02:33;16.80;96.30
23477;DHT22;11911;50.768;13.150;2022-07-10T17:04:59;16.90;96.30
23477;DHT22;11911;50.768;13.150;2022-07-10T17:07:24;16.80;96.30
23477;DHT22;11911;50.768;13.150;2022-07-10T17:09:50;16.90;96.30
23477;DHT22;11911;50.768;13.150;2022-07-10T17:12:15;16.80;96.30
23477;DHT22;11911;50.768;13.150;2022-07-10T17:14:41;16.80;96.30
23477;DHT22;11911;50.768;13.150;2022-07-10T17:17:07;16.80;96.30
23477;DHT22;11911;50.768;13.150;2022-07-10T17:19:32;16.80;96.30
23477;DHT22;11911;50.768;13.150;2022-07-10T17:21:58;16.90;96.30
23477;DHT22;11911;50.768;13.150;2022-07-10T17:24:24;16.80;96.30
23477;DHT22;11911;50.768;13.150;2022-07-10T17:26:49;16.80;96.30
23477;DHT22;11911;50.768;13.150;2022-07-10T17:29:15;16.70;96.30
23477;DHT22;11911;50.768;13.150;2022-07-10T17:31:41;16.60;96.30
23477;DHT22;11911;50.768;13.150;2022-07-10T17:34:07;16.40;96.30
23477;DHT22;11911;50.768;13.150;2022-07-10T17:36:32;16.50;96.30
23477;DHT22;11911;50.768;13.150;2022-07-10T17:38:58;16.40;96.30
23477;DHT22;11911;50.768;13.150;2022-07-10T17:41:24;16.30;96.30
23477;DHT22;11911;50.768;13.150;2022-07-10T17:43:49;16.10;96.30
23477;DHT22;11911;50.768;13.150;2022-07-10T17:46:15;16.00;96.30
23477;DHT22;11911;50.768;13.150;2022-07-10T17:48:40;15.90;96.30
23477;DHT22;11911;50.768;13.150;2022-07-10T17:51:06;15.80;96.30
23477;DHT22;11911;50.768;13.150;2022-07-10T17:53:32;15.70;96.30
23477;DHT22;11911;50.768;13.150;2022-07-10T17:55:58;15.70;96.30
23477;DHT22;11911;50.768;13.150;2022-07-10T17:58:24;15.80;96.30
23477;DHT22;11911;50.768;13.150;2022-07-10T18:00:49;15.80;96.30
23477;DHT22;11911;50.768;13.150;2022-07-10T18:03:15;15.70;96.30
23477;DHT22;11911;50.768;13.150;2022-07-10T18:05:40;15.70;96.30
23477;DHT22;11911;50.768;13.150;2022-07-10T18:08:12;15.60;96.30
23477;DHT22;11911;50.768;13.150;2022-07-10T18:10:38;15.50;96.30
23477;DHT22;11911;50.768;13.150;2022-07-10T18:13:04;15.40;96.30
23477;DHT22;11911;50.768;13.150;2022-07-10T18:15:30;15.40;96.30
23477;DHT22;11911;50.768;13.150;2022-07-10T18:17:56;15.40;96.30
23477;DHT22;11911;50.768;13.150;2022-07-10T18:20:22;15.30;96.30
23477;DHT22;11911;50.768;13.150;2022-07-10T18:22:47;15.30;96.30
23477;DHT22;11911;50.768;13.150;2022-07-10T18:25:15;15.30;96.30
23477;DHT22;11911;50.768;13.150;2022-07-10T18:27:41;15.30;96.30
23477;DHT22;11911;50.768;13.150;2022-07-10T18:30:07;15.30;96.30
23477;DHT22;11911;50.768;13.150;2022-07-10T18:32:32;15.30;96.30
23477;DHT22;11911;50.768;13.150;2022-07-10T18:35:17;15.20;96.30
23477;DHT22;11911;50.768;13.150;2022-07-10T18:37:42;15.00;96.30
23477;DHT22;11911;50.768;13.150;2022-07-10T18:40:08;15.00;96.30
23477;DHT22;11911;50.768;13.150;2022-07-10T18:42:34;14.80;96.30
23477;DHT22;11911;50.768;13.150;2022-07-10T18:44:59;14.70;96.30
23477;DHT22;11911;50.768;13.150;2022-07-10T18:47:25;14.60;96.30
23477;DHT22;11911;50.768;13.150;2022-07-10T18:49:50;14.50;96.30
23477;DHT22;11911;50.768;13.150;2022-07-10T18:52:16;14.40;96.30
23477;DHT22;11911;50.768;13.150;2022-07-10T18:54:41;14.30;96.30
23477;DHT22;11911;50.768;13.150;2022-07-10T18:57:07;14.20;96.30
23477;DHT22;11911;50.768;13.150;2022-07-10T18:59:34;14.20;96.30
23477;DHT22;11911;50.768;13.150;2022-07-10T19:02:00;14.20;96.30
23477;DHT22;11911;50.768;13.150;2022-07-10T19:04:26;14.20;96.30
23477;DHT22;11911;50.768;13.150;2022-07-10T19:06:51;14.20;96.30
23477;DHT22;11911;50.768;13.150;2022-07-10T19:09:18;14.20;96.30
23477;DHT22;11911;50.768;13.150;2022-07-10T19:11:44;14.20;96.30
23477;DHT22;11911;50.768;13.150;2022-07-10T19:14:10;14.20;96.30
23477;DHT22;11911;50.768;13.150;2022-07-10T19:16:37;14.10;96.30
23477;DHT22;11911;50.768;13.150;2022-07-10T19:19:02;14.10;96.30
23477;DHT22;11911;50.768;13.150;2022-07-10T19:21:28;14.10;96.30
23477;DHT22;11911;50.768;13.150;2022-07-10T19:23:53;14.00;96.30
23477;DHT22;11911;50.768;13.150;2022-07-10T19:26:19;14.00;96.30
23477;DHT22;11911;50.768;13.150;2022-07-10T19:28:45;14.10;96.30
23477;DHT22;11911;50.768;13.150;2022-07-10T19:31:12;14.10;96.30
23477;DHT22;11911;50.768;13.150;2022-07-10T19:33:38;14.20;96.30
23477;DHT22;11911;50.768;13.150;2022-07-10T19:36:04;14.10;96.30
23477;DHT22;11911;50.768;13.150;2022-07-10T19:38:30;14.10;96.30
23477;DHT22;11911;50.768;13.150;2022-07-10T19:40:56;14.20;96.30
23477;DHT22;11911;50.768;13.150;2022-07-10T19:43:22;14.20;96.30